Time;durP1;ratioP1;P1;durP2;ratioP2;P2;SDS_P1;SDS_P2;PMS_P1;PMS_P2;Temp;Humidity;BMP_temperature;BMP_pressure;BME280_temperature;BME280_humidity;BME280_pressure;Samples;Min_cycle;Max_cycle;Signal;HPM_P1;HPM_P2
2021/11/20 00:01:40;;;;;;;5.88;3.08;;;11.10;99.90;;;;;;4995721;28;20022;-76
2021/11/20 00:04:06;;;;;;;4.07;2.38;;;11.10;99.90;;;;;;5013616;28;20028;-76
2021/11/20 00:06:37;;;;;;;7.35;3.00;;;11.10;99.90;;;;;;4997190;28;20121;-76
2021/11/20 00:09:05;;;;;;;3.60;2.08;;;11.00;99.90;;;;;;5017117;28;20101;-77
2021/11/20 00:11:33;;;;;;;5.95;2.55;;;11.00;99.90;;;;;;4999486;28;20034;-77
2021/11/20 00:13:58;;;;;;;4.50;2.78;;;11.00;99.90;;;;;;4999355;28;20030;-76
2021/11/20 00:16:25;;;;;;;5.68;3.20;;;11.00;99.90;;;;;;4999247;28;20076;-77
2021/11/20 00:18:52;;;;;;;6.57;2.45;;;11.00;99.90;;;;;;5016963;28;20029;-77
2021/11/20 00:21:28;;;;;;;9.25;2.45;;;11.00;99.90;;;;;;5016723;28;20025;-77
2021/11/20 00:23:57;;;;;;;10.60;2.63;;;11.00;99.90;;;;;;4999738;28;20435;-76
2021/11/20 00:26:28;;;;;;;;;;;11.10;99.90;;;;;;5017084;28;20033;-76
2021/11/20 00:31:32;;;;;;;7.90;2.92;;;11.00;99.90;;;;;;5016949;28;20117;-77
2021/11/20 00:33:58;;;;;;;6.47;3.15;;;11.00;99.90;;;;;;5017093;28;20403;-76
2021/11/20 00:36:25;;;;;;;6.80;3.08;;;11.00;99.90;;;;;;4998911;28;20034;-76
2021/11/20 00:38:51;;;;;;;4.88;2.58;;;11.00;99.90;;;;;;4999306;28;20030;-76
2021/11/20 00:41:21;;;;;;;6.00;2.65;;;11.00;99.90;;;;;;4998757;28;20034;-77
2021/11/20 00:43:48;;;;;;;5.95;2.80;;;11.00;99.90;;;;;;5016593;28;20379;-77
2021/11/20 00:46:16;;;;;;;6.35;2.60;;;11.00;99.90;;;;;;5016737;28;20022;-77
2021/11/20 00:48:43;;;;;;;5.30;2.67;;;11.00;99.90;;;;;;5016650;28;20116;-77
2021/11/20 00:51:11;;;;;;;7.80;3.58;;;10.90;99.90;;;;;;5016518;28;20037;-77
2021/11/20 00:53:37;;;;;;;7.38;3.10;;;10.90;99.90;;;;;;5016349;28;20516;-77
2021/11/20 00:56:05;;;;;;;7.82;2.88;;;10.90;99.90;;;;;;5016063;28;20108;-76
2021/11/20 00:58:34;;;;;;;7.03;3.50;;;10.90;99.90;;;;;;5016572;28;20022;-77
2021/11/20 01:01:07;;;;;;;11.05;3.78;;;10.80;99.90;;;;;;5016099;28;20097;-77
2021/11/20 01:03:33;;;;;;;7.32;3.10;;;10.80;99.90;;;;;;5015694;28;20097;-77
2021/11/20 01:05:59;;;;;;;6.20;3.28;;;10.80;99.90;;;;;;5014945;28;20129;-77
2021/11/20 01:08:28;;;;;;;9.32;3.22;;;10.90;99.90;;;;;;5001140;28;20108;-77
2021/11/20 01:11:04;;;;;;;6.80;2.92;;;10.90;99.90;;;;;;5015781;28;20049;-77
2021/11/20 01:13:30;;;;;;;10.75;3.47;;;10.90;99.90;;;;;;5015685;28;20056;-77
2021/11/20 01:16:00;;;;;;;6.15;3.42;;;10.90;99.90;;;;;;5015734;28;20022;-77
2021/11/20 01:18:26;;;;;;;7.18;4.00;;;10.80;99.90;;;;;;4997240;28;20064;-77
2021/11/20 01:20:53;;;;;;;6.80;3.42;;;10.90;99.90;;;;;;5015837;28;20022;-77
2021/11/20 01:23:22;;;;;;;8.55;4.07;;;10.90;99.90;;;;;;4999045;28;20030;-77
2021/11/20 01:25:48;;;;;;;;;;;10.90;99.90;;;;;;5015845;28;20049;-77
2021/11/20 01:28:15;;;;;;;9.02;3.88;;;10.90;99.90;;;;;;4997860;28;19963;-78
2021/11/20 01:30:42;;;;;;;6.97;3.97;;;10.90;99.90;;;;;;5015381;28;20022;-77
2021/11/20 01:33:08;;;;;;;9.20;4.65;;;10.90;99.90;;;;;;4997676;28;20030;-77
2021/11/20 01:35:33;;;;;;;8.32;4.72;;;10.90;99.90;;;;;;5015398;28;20057;-77
2021/11/20 01:38:00;;;;;;;10.35;5.05;;;10.90;99.90;;;;;;5015513;28;20069;-77
2021/11/20 01:40:31;;;;;;;13.93;5.20;;;10.90;99.90;;;;;;5007943;28;20083;-77
2021/11/20 01:42:57;;;;;;;7.03;4.25;;;10.90;99.90;;;;;;5035062;28;20041;-77
2021/11/20 01:45:33;;;;;;;11.85;5.80;;;10.90;99.90;;;;;;5035253;28;20017;-77
2021/11/20 01:48:42;;;;;;;9.57;5.07;;;10.90;99.90;;;;;;5017336;28;20033;-77
2021/11/20 01:51:49;;;;;;;11.77;5.05;;;10.90;99.90;;;;;;5017115;28;20490;-76
2021/11/20 01:54:40;;;;;;;11.50;5.38;;;10.90;99.90;;;;;;5023773;28;20520;-76
2021/11/20 01:57:44;;;;;;;11.10;5.65;;;10.90;99.90;;;;;;5015132;28;20032;-77
2021/11/20 02:00:22;;;;;;;12.10;5.38;;;10.90;99.90;;;;;;5016814;28;20029;-77
2021/11/20 02:03:09;;;;;;;9.00;5.25;;;10.90;99.90;;;;;;5021209;28;20025;-81
2021/11/20 02:05:53;;;;;;;15.32;5.40;;;10.90;99.90;;;;;;5009152;28;20034;-81
2021/11/20 02:08:38;;;;;;;14.93;6.80;;;10.90;99.90;;;;;;5026293;28;20026;-81
2021/11/20 02:11:24;;;;;;;12.55;6.05;;;10.90;99.90;;;;;;5005551;28;20061;-81
2021/11/20 02:13:50;;;;;;;13.20;6.00;;;10.90;99.90;;;;;;5023650;28;20022;-81
2021/11/20 02:16:28;;;;;;;14.10;6.53;;;10.90;99.90;;;;;;5022684;28;20492;-81
2021/11/20 02:18:58;;;;;;;13.63;6.20;;;10.90;99.90;;;;;;5016179;28;20026;-81
2021/11/20 02:22:02;;;;;;;12.70;6.97;;;10.90;99.90;;;;;;4985161;28;20019;-80
2021/11/20 02:24:28;;;;;;;14.95;6.78;;;10.90;99.90;;;;;;4936106;28;20042;-80
2021/11/20 02:26:53;;;;;;;16.02;7.30;;;10.90;99.90;;;;;;5001974;28;20379;-80
2021/11/20 02:29:19;;;;;;;17.58;6.53;;;11.00;99.90;;;;;;4985199;28;20113;-81
2021/11/20 02:31:51;;;;;;;14.32;5.90;;;10.90;99.90;;;;;;4985309;28;20061;-81
2021/11/20 02:34:18;;;;;;;14.25;6.82;;;10.90;99.90;;;;;;5016497;28;20498;-81
2021/11/20 02:36:44;;;;;;;13.40;6.93;;;10.90;99.90;;;;;;5025252;28;20391;-80
2021/11/20 02:39:14;;;;;;;15.23;6.80;;;10.90;99.90;;;;;;5024981;28;20085;-80
2021/11/20 02:41:44;;;;;;;13.90;6.30;;;10.90;99.90;;;;;;5023612;28;20025;-81
2021/11/20 02:44:13;;;;;;;14.93;6.30;;;10.90;99.90;;;;;;5042521;28;20081;-80
2021/11/20 02:46:42;;;;;;;14.55;6.63;;;10.90;99.90;;;;;;5024547;28;20059;-81
2021/11/20 02:49:10;;;;;;;15.07;7.03;;;10.90;99.90;;;;;;5025331;28;20026;-80
2021/11/20 02:51:44;;;;;;;15.20;7.25;;;11.20;99.90;;;;;;5025304;28;20030;-81
2021/11/20 02:54:14;;;;;;;16.58;6.30;;;11.00;99.90;;;;;;5022265;28;20030;-81
2021/11/20 02:56:45;;;;;;;17.95;6.70;;;11.00;99.90;;;;;;5004627;28;20037;-80
2021/11/20 02:59:12;;;;;;;18.45;7.45;;;11.00;99.90;;;;;;5022350;28;20018;-80
2021/11/20 03:01:39;;;;;;;12.63;6.13;;;11.00;99.90;;;;;;5005345;28;20025;-80
2021/11/20 03:04:06;;;;;;;13.10;6.10;;;11.00;99.90;;;;;;5004694;28;20026;-80
2021/11/20 03:06:33;;;;;;;14.15;6.50;;;11.00;99.90;;;;;;5026802;28;20031;-80
2021/11/20 03:09:00;;;;;;;15.48;6.70;;;11.00;99.90;;;;;;5024245;28;20026;-80
2021/11/20 03:11:27;;;;;;;14.52;6.80;;;11.00;99.90;;;;;;5025045;28;20367;-81
2021/11/20 03:13:54;;;;;;;16.98;7.38;;;10.90;99.90;;;;;;5024685;28;20101;-80
2021/11/20 03:16:20;;;;;;;13.13;5.95;;;10.90;99.90;;;;;;5042507;28;20033;-81
2021/11/20 03:18:46;;;;;;;14.82;6.93;;;11.00;99.90;;;;;;5042469;28;20025;-80
2021/11/20 03:21:13;;;;;;;16.23;7.15;;;11.00;99.90;;;;;;5035473;28;20044;-81
2021/11/20 03:23:48;;;;;;;14.95;6.65;;;11.00;99.90;;;;;;5010007;28;20045;-81
2021/11/20 03:26:14;;;;;;;15.23;7.05;;;10.90;99.90;;;;;;5008388;28;20022;-81
2021/11/20 03:28:39;;;;;;;15.23;7.57;;;10.90;99.90;;;;;;5004195;28;20026;-80
2021/11/20 03:31:05;;;;;;;17.10;6.78;;;10.80;99.90;;;;;;5021521;28;20101;-81
2021/11/20 03:33:30;;;;;;;20.67;7.90;;;10.80;99.90;;;;;;5024804;28;20026;-80
2021/11/20 03:35:56;;;;;;;17.55;7.70;;;10.90;99.90;;;;;;5006343;28;20026;-80
2021/11/20 03:38:22;;;;;;;18.77;7.80;;;10.90;99.90;;;;;;5021362;28;20031;-81
2021/11/20 03:40:49;;;;;;;14.73;6.90;;;10.90;99.90;;;;;;5025963;28;20052;-80
2021/11/20 03:43:15;;;;;;;17.83;6.78;;;10.90;99.90;;;;;;5029639;28;20021;-80
2021/11/20 03:45:41;;;;;;;13.00;6.43;;;10.90;99.90;;;;;;5029940;28;20022;-80
2021/11/20 03:48:08;;;;;;;17.33;7.28;;;10.80;99.90;;;;;;5030230;28;20028;-80
2021/11/20 03:50:35;;;;;;;14.45;6.60;;;10.80;99.90;;;;;;5028446;28;20021;-81
2021/11/20 03:53:02;;;;;;;17.10;7.15;;;10.80;99.90;;;;;;5043102;28;20046;-79
2021/11/20 03:55:35;;;;;;;17.15;7.07;;;10.80;99.90;;;;;;5037267;28;20029;-78
2021/11/20 03:58:00;;;;;;;15.05;6.93;;;10.80;99.90;;;;;;5036937;28;20029;-77
2021/11/20 04:00:30;;;;;;;15.93;7.57;;;10.80;99.90;;;;;;5037008;28;20021;-78
2021/11/20 04:02:56;;;;;;;14.45;6.95;;;10.90;99.90;;;;;;5037241;28;20021;-78
2021/11/20 04:05:22;;;;;;;14.32;6.00;;;10.90;99.90;;;;;;5037327;28;20481;-78
2021/11/20 04:07:49;;;;;;;16.23;6.82;;;10.90;99.90;;;;;;5037100;28;20547;-77
2021/11/20 04:10:17;;;;;;;13.48;7.10;;;10.90;99.90;;;;;;5019326;28;20112;-77
2021/11/20 04:12:43;;;;;;;16.60;7.85;;;10.90;99.90;;;;;;5036959;28;20031;-78
2021/11/20 04:15:11;;;;;;;18.02;7.15;;;10.90;99.90;;;;;;5036964;28;20033;-77
2021/11/20 04:17:37;;;;;;;19.42;8.32;;;10.90;99.90;;;;;;5036561;28;20033;-78
2021/11/20 04:20:06;;;;;;;16.20;7.32;;;10.90;99.90;;;;;;5019071;28;20021;-78
2021/11/20 04:22:32;;;;;;;13.75;7.05;;;10.90;99.90;;;;;;5018903;28;20036;-78
2021/11/20 04:24:57;;;;;;;14.80;6.93;;;10.80;99.90;;;;;;5036798;28;20033;-78
2021/11/20 04:27:23;;;;;;;14.40;7.10;;;10.80;99.90;;;;;;5018984;28;20032;-78
2021/11/20 04:29:48;;;;;;;18.65;7.93;;;10.80;99.90;;;;;;5037347;28;20048;-78
2021/11/20 04:32:14;;;;;;;16.45;7.82;;;10.90;99.90;;;;;;5036674;28;20025;-79
2021/11/20 04:34:39;;;;;;;17.67;7.60;;;11.40;99.90;;;;;;5036658;28;20386;-78
2021/11/20 04:37:07;;;;;;;13.52;6.57;;;10.80;99.90;;;;;;5018928;28;20029;-78
2021/11/20 04:39:34;;;;;;;15.27;6.80;;;10.90;99.90;;;;;;5036544;28;20367;-78
2021/11/20 04:41:59;;;;;;;14.45;7.03;;;10.90;99.90;;;;;;5036346;28;20017;-78
2021/11/20 04:44:25;;;;;;;15.07;7.75;;;10.80;99.90;;;;;;5018574;28;20028;-77
2021/11/20 04:46:51;;;;;;;16.48;7.22;;;10.80;99.90;;;;;;5018686;28;20036;-78
2021/11/20 04:49:16;;;;;;;16.75;7.25;;;10.80;99.90;;;;;;5036326;28;20033;-78
2021/11/20 04:51:42;;;;;;;14.65;6.43;;;10.80;99.90;;;;;;5036277;28;20025;-77
2021/11/20 04:54:08;;;;;;;14.85;6.70;;;10.80;99.90;;;;;;5035323;28;20113;-77
2021/11/20 04:56:33;;;;;;;14.50;7.53;;;10.80;99.90;;;;;;5036203;28;20035;-78
2021/11/20 04:58:59;;;;;;;16.45;7.35;;;10.80;99.90;;;;;;5036233;28;20017;-78
2021/11/20 05:01:26;;;;;;;15.98;7.60;;;10.80;99.90;;;;;;5018377;28;20036;-77
2021/11/20 05:03:53;;;;;;;15.20;7.45;;;10.80;99.90;;;;;;5035916;28;20024;-77
2021/11/20 05:06:21;;;;;;;14.27;7.35;;;10.80;99.90;;;;;;5036005;28;20075;-77
2021/11/20 05:08:46;;;;;;;18.70;8.30;;;10.70;99.90;;;;;;5036139;28;20584;-78
2021/11/20 05:11:13;;;;;;;16.90;8.38;;;10.70;99.90;;;;;;5018162;28;20064;-78
2021/11/20 05:13:39;;;;;;;17.67;7.72;;;10.70;99.90;;;;;;5018169;28;20064;-78
2021/11/20 05:16:05;;;;;;;17.98;8.63;;;10.80;99.90;;;;;;5035761;28;20525;-77
2021/11/20 05:18:31;;;;;;;18.00;7.78;;;10.80;99.90;;;;;;5035472;28;20124;-78
2021/11/20 05:21:00;;;;;;;16.05;7.78;;;10.70;99.90;;;;;;5035806;28;20060;-78
2021/11/20 05:23:28;;;;;;;16.23;7.57;;;10.70;99.90;;;;;;5035440;28;20025;-77
2021/11/20 05:25:54;;;;;;;15.40;8.30;;;10.70;99.90;;;;;;5036323;28;20108;-78
2021/11/20 05:28:20;;;;;;;16.92;7.80;;;10.70;99.90;;;;;;5017882;28;20040;-78
2021/11/20 05:30:47;;;;;;;18.25;7.68;;;10.70;99.90;;;;;;5035421;28;20021;-78
2021/11/20 05:33:27;;;;;;;16.95;7.82;;;10.70;99.90;;;;;;5035217;28;20097;-78
2021/11/20 05:35:53;;;;;;;15.48;8.20;;;10.70;99.90;;;;;;5035923;28;20045;-78
2021/11/20 05:38:19;;;;;;;16.70;8.07;;;10.70;99.90;;;;;;5017703;28;20107;-78
2021/11/20 05:40:46;;;;;;;18.65;7.70;;;10.70;99.90;;;;;;5035462;28;20017;-77
2021/11/20 05:43:16;;;;;;;15.75;7.95;;;10.60;99.90;;;;;;5035559;28;20458;-78
2021/11/20 05:45:45;;;;;;;18.50;9.05;;;10.60;99.90;;;;;;5017866;28;20028;-78
2021/11/20 05:48:11;;;;;;;;;;;10.60;99.90;;;;;;5035709;28;20025;-78
2021/11/20 05:50:37;;;;;;;14.00;6.38;;;10.70;99.90;;;;;;5017575;28;19916;-77
2021/11/20 05:53:09;;;;;;;14.63;7.28;;;10.70;99.90;;;;;;5017410;28;20021;-77
2021/11/20 05:55:35;;;;;;;16.77;8.63;;;10.60;99.90;;;;;;5035184;28;20021;-77
2021/11/20 05:58:00;;;;;;;12.75;7.63;;;10.60;99.90;;;;;;5035196;28;20036;-78
2021/11/20 06:00:30;;;;;;;14.77;7.50;;;10.60;99.90;;;;;;5035195;28;20018;-78
2021/11/20 06:02:58;;;;;;;13.93;7.50;;;10.60;99.90;;;;;;5034834;28;20018;-78
2021/11/20 06:05:24;;;;;;;15.57;8.20;;;10.60;99.90;;;;;;5017378;28;20087;-78
2021/11/20 06:07:50;;;;;;;15.57;8.35;;;10.70;99.90;;;;;;5017584;28;20022;-78
2021/11/20 06:10:15;;;;;;;16.80;8.50;;;10.70;99.90;;;;;;5017259;28;20028;-78
2021/11/20 06:12:41;;;;;;;16.90;8.55;;;10.70;99.90;;;;;;5034862;28;20083;-78
2021/11/20 06:15:07;;;;;;;21.08;9.82;;;10.70;99.90;;;;;;5034807;28;20029;-78
2021/11/20 06:17:32;;;;;;;18.00;8.95;;;10.70;99.90;;;;;;5034730;28;20112;-78
2021/11/20 06:19:58;;;;;;;17.90;8.77;;;10.60;99.90;;;;;;5016868;28;20021;-77
2021/11/20 06:22:24;;;;;;;21.00;9.38;;;10.60;99.90;;;;;;5034663;28;20530;-77
2021/11/20 06:24:50;;;;;;;20.67;8.93;;;10.60;99.90;;;;;;5034381;28;20497;-78
2021/11/20 06:27:17;;;;;;;21.77;10.98;;;10.60;99.90;;;;;;5034501;28;20441;-78
2021/11/20 06:29:43;;;;;;;19.65;9.60;;;10.60;99.90;;;;;;5017208;28;20048;-79
2021/11/20 06:32:09;;;;;;;23.38;10.95;;;10.50;99.90;;;;;;5016674;28;20036;-79
2021/11/20 06:34:35;;;;;;;21.13;9.98;;;10.60;99.90;;;;;;5034479;28;20036;-79
2021/11/20 06:37:01;;;;;;;21.73;10.23;;;10.70;99.90;;;;;;5035638;28;20036;-78
2021/11/20 06:39:27;;;;;;;20.90;9.93;;;10.60;99.90;;;;;;5034811;28;20025;-79
2021/11/20 06:41:54;;;;;;;26.83;11.30;;;10.60;99.90;;;;;;5016994;28;20417;-77
2021/11/20 06:44:20;;;;;;;20.73;9.70;;;10.60;99.90;;;;;;5016516;28;20068;-78
2021/11/20 06:46:45;;;;;;;24.83;10.98;;;10.60;99.90;;;;;;5016791;28;20037;-78
2021/11/20 06:49:11;;;;;;;24.05;10.68;;;10.50;99.90;;;;;;5016673;28;20033;-78
2021/11/20 06:51:37;;;;;;;22.67;10.63;;;10.50;99.90;;;;;;5016255;28;20032;-80
2021/11/20 06:54:03;;;;;;;23.52;11.32;;;10.60;99.90;;;;;;5034046;28;20045;-79
2021/11/20 06:56:30;;;;;;;21.83;9.98;;;10.60;99.90;;;;;;5034319;28;20486;-79
2021/11/20 06:59:13;;;;;;;23.20;11.25;;;10.50;99.90;;;;;;5034488;28;20033;-78
2021/11/20 07:01:39;;;;;;;22.38;10.35;;;10.50;99.90;;;;;;5034288;28;20097;-78
2021/11/20 07:04:08;;;;;;;25.40;12.30;;;10.50;99.90;;;;;;5033851;28;20052;-77
2021/11/20 07:06:41;;;;;;;22.45;10.57;;;10.50;99.90;;;;;;5033978;28;20053;-77
2021/11/20 07:09:07;;;;;;;24.15;10.50;;;10.50;99.90;;;;;;5033714;28;20033;-77
2021/11/20 07:11:32;;;;;;;21.55;10.10;;;10.50;99.90;;;;;;5033779;28;20105;-78
2021/11/20 07:13:58;;;;;;;24.70;11.57;;;10.50;99.90;;;;;;5034600;28;20072;-77
2021/11/20 07:16:26;;;;;;;22.08;10.65;;;10.50;99.90;;;;;;5017336;28;20032;-78
2021/11/20 07:18:52;;;;;;;23.88;10.30;;;10.50;99.90;;;;;;5020586;28;20488;-77
2021/11/20 07:21:24;;;;;;;23.08;11.27;;;10.50;99.90;;;;;;5038997;28;20032;-77
2021/11/20 07:23:50;;;;;;;23.95;11.23;;;10.40;99.90;;;;;;5038001;28;20025;-77
2021/11/20 07:26:15;;;;;;;21.63;11.50;;;10.50;99.90;;;;;;5020094;28;20037;-77
2021/11/20 07:28:41;;;;;;;20.83;10.30;;;10.40;99.90;;;;;;5037734;28;20025;-77
2021/11/20 07:31:07;;;;;;;20.80;10.48;;;10.40;99.90;;;;;;5019945;28;20061;-77
2021/11/20 07:33:33;;;;;;;21.42;11.27;;;10.50;99.90;;;;;;5037994;28;20029;-76
2021/11/20 07:36:00;;;;;;;18.10;9.75;;;10.50;99.90;;;;;;5037755;28;20026;-77
2021/11/20 07:38:39;;;;;;;16.48;8.65;;;10.50;99.90;;;;;;5019883;28;20017;-77
2021/11/20 07:41:06;;;;;;;21.33;10.40;;;10.50;99.90;;;;;;5020012;28;20072;-77
2021/11/20 07:43:31;;;;;;;19.73;10.07;;;10.50;99.90;;;;;;5019631;28;20071;-77
2021/11/20 07:45:57;;;;;;;17.95;8.80;;;10.50;99.90;;;;;;5037275;28;20029;-77
2021/11/20 07:48:25;;;;;;;21.83;9.93;;;10.60;99.90;;;;;;5037856;28;20021;-78
2021/11/20 07:50:53;;;;;;;21.92;10.43;;;10.50;99.90;;;;;;5037774;28;20025;-77
2021/11/20 07:53:19;;;;;;;18.92;9.88;;;10.50;99.90;;;;;;5037069;28;20017;-77
2021/11/20 07:55:47;;;;;;;21.23;10.07;;;10.60;99.90;;;;;;5037039;28;20385;-78
2021/11/20 07:58:13;;;;;;;23.83;9.95;;;10.60;99.90;;;;;;5037736;28;20021;-79
2021/11/20 08:00:40;;;;;;;27.67;12.45;;;10.60;99.90;;;;;;5038002;28;20022;-78
2021/11/20 08:03:07;;;;;;;21.58;10.05;;;10.60;99.90;;;;;;5037164;28;20029;-78
2021/11/20 08:05:33;;;;;;;25.60;11.13;;;10.50;99.90;;;;;;5037401;28;20021;-78
2021/11/20 08:07:59;;;;;;;21.85;11.27;;;10.50;99.90;;;;;;5037024;28;20040;-78
2021/11/20 08:10:27;;;;;;;25.55;10.75;;;10.50;99.90;;;;;;5037112;28;20029;-78
2021/11/20 08:12:53;;;;;;;26.25;11.23;;;10.50;99.90;;;;;;5036813;28;20112;-78
2021/11/20 08:15:19;;;;;;;23.13;10.73;;;10.50;99.90;;;;;;5037202;28;20057;-76
2021/11/20 08:17:44;;;;;;;26.13;11.68;;;10.60;99.90;;;;;;5018819;28;20022;-76
2021/11/20 08:20:14;;;;;;;23.02;10.40;;;10.50;99.90;;;;;;5019034;28;20466;-77
2021/11/20 08:22:39;;;;;;;21.27;9.60;;;10.50;99.90;;;;;;5036428;28;20071;-77
2021/11/20 08:25:08;;;;;;;22.73;10.68;;;10.50;99.90;;;;;;5018899;28;20381;-77
2021/11/20 08:27:35;;;;;;;21.77;10.43;;;10.60;99.90;;;;;;5018685;28;20503;-77
2021/11/20 08:30:00;;;;;;;26.13;11.30;;;10.60;99.90;;;;;;5018805;28;20021;-77
2021/11/20 08:32:27;;;;;;;26.70;12.00;;;10.60;99.90;;;;;;5018616;28;20125;-77
2021/11/20 08:34:53;;;;;;;27.23;12.48;;;10.60;99.90;;;;;;5037072;28;20076;-78
2021/11/20 08:37:18;;;;;;;23.02;11.45;;;10.60;99.90;;;;;;5036436;28;20478;-78
2021/11/20 08:39:44;;;;;;;23.58;10.70;;;10.70;99.90;;;;;;5036498;28;20028;-77
2021/11/20 08:42:10;;;;;;;26.95;11.32;;;10.70;99.90;;;;;;5018687;28;20021;-77
2021/11/20 08:44:35;;;;;;;24.08;11.52;;;10.70;99.90;;;;;;5018495;28;20092;-77
2021/11/20 08:47:03;;;;;;;22.00;10.38;;;10.70;99.90;;;;;;5018574;28;20041;-78
2021/11/20 08:49:29;;;;;;;21.38;9.68;;;10.70;99.90;;;;;;5018500;28;20030;-77
2021/11/20 08:51:55;;;;;;;24.27;11.60;;;10.70;99.90;;;;;;5018296;28;20068;-77
2021/11/20 08:54:21;;;;;;;27.73;11.73;;;10.70;99.90;;;;;;5018368;28;20061;-77
2021/11/20 08:56:48;;;;;;;22.58;10.65;;;10.70;99.90;;;;;;5018247;28;20474;-77
2021/11/20 08:59:20;;;;;;;24.77;10.85;;;10.80;99.90;;;;;;5018907;28;20020;-77
2021/11/20 09:02:16;;;;;;;25.30;11.00;;;10.80;99.90;;;;;;5018394;28;20018;-78
2021/11/20 09:04:45;;;;;;;21.35;10.68;;;10.80;99.90;;;;;;5036418;28;20025;-77
2021/11/20 09:07:21;;;;;;;22.40;11.18;;;10.80;99.90;;;;;;5036469;28;20034;-78
2021/11/20 09:09:58;;;;;;;25.63;12.52;;;10.80;99.90;;;;;;5036507;28;20075;-77
2021/11/20 09:12:36;;;;;;;25.20;11.05;;;10.80;99.90;;;;;;5035661;28;20032;-77
2021/11/20 09:15:11;;;;;;;25.02;12.35;;;10.80;99.90;;;;;;5036668;28;20028;-77
2021/11/20 09:17:37;;;;;;;27.58;11.80;;;10.80;99.90;;;;;;5035528;28;20030;-77
2021/11/20 09:20:04;;;;;;;25.50;11.32;;;10.80;99.90;;;;;;5017256;28;20024;-76
2021/11/20 09:22:31;;;;;;;24.63;12.20;;;10.90;99.90;;;;;;5035336;28;20390;-76
2021/11/20 09:24:56;;;;;;;28.13;12.50;;;10.80;99.90;;;;;;5012908;28;20040;-77
2021/11/20 09:27:23;;;;;;;24.00;11.35;;;10.80;99.90;;;;;;4999080;28;20022;-75
2021/11/20 09:29:49;;;;;;;26.92;12.43;;;10.90;99.90;;;;;;4998238;28;20124;-77
2021/11/20 09:32:15;;;;;;;23.58;10.85;;;10.90;99.90;;;;;;5015509;28;20076;-76
2021/11/20 09:34:41;;;;;;;31.85;13.68;;;10.90;99.90;;;;;;4998347;28;20406;-76
2021/11/20 09:37:06;;;;;;;29.55;13.75;;;10.90;99.90;;;;;;5016288;28;20022;-76
2021/11/20 09:39:36;;;;;;;29.67;13.45;;;10.90;99.90;;;;;;5015833;28;20022;-77
2021/11/20 09:42:36;;;;;;;27.50;11.63;;;10.90;99.90;;;;;;5016767;28;20034;-75
2021/11/20 09:45:08;;;;;;;27.88;12.88;;;11.00;99.90;;;;;;5016449;28;20085;-76
2021/11/20 09:47:41;;;;;;;26.73;11.73;;;11.00;99.90;;;;;;5030654;28;20032;-76
2021/11/20 09:50:13;;;;;;;30.38;12.00;;;11.10;99.90;;;;;;5030517;28;20080;-76
2021/11/20 09:52:41;;;;;;;30.10;12.93;;;11.00;99.90;;;;;;5004235;28;20057;-76
2021/11/20 09:55:09;;;;;;;32.10;13.57;;;11.10;99.90;;;;;;5015069;28;20391;-77
2021/11/20 09:57:40;;;;;;;31.67;14.45;;;11.10;99.90;;;;;;5014860;28;20026;-79
2021/11/20 10:00:12;;;;;;;33.97;13.82;;;11.10;99.90;;;;;;5017184;28;20111;-78
2021/11/20 10:02:57;;;;;;;32.50;13.35;;;11.10;99.90;;;;;;5016354;28;20030;-79
2021/11/20 10:05:27;;;;;;;31.83;13.40;;;11.10;99.90;;;;;;5000654;28;20478;-77
2021/11/20 10:08:27;;;;;;;32.95;14.20;;;11.10;99.90;;;;;;4996798;28;20029;-79
2021/11/20 10:11:08;;;;;;;34.95;15.50;;;11.10;99.90;;;;;;4986129;28;20038;-76
2021/11/20 10:14:09;;;;;;;38.75;14.88;;;11.10;99.90;;;;;;5014968;28;20105;-79
2021/11/20 10:16:54;;;;;;;38.78;14.82;;;11.10;99.90;;;;;;5014524;28;20088;-79
2021/11/20 10:19:23;;;;;;;32.28;14.10;;;11.10;99.90;;;;;;4998100;28;20093;-79
2021/11/20 10:22:10;;;;;;;33.78;14.95;;;11.20;99.90;;;;;;4998686;28;20501;-76
2021/11/20 10:24:46;;;;;;;34.95;13.95;;;11.10;99.90;;;;;;4996887;28;20505;-78
2021/11/20 10:27:52;;;;;;;36.85;15.95;;;11.10;99.90;;;;;;5002821;28;20026;-80
2021/11/20 10:30:55;;;;;;;37.38;15.20;;;11.10;99.90;;;;;;5001413;28;20037;-82
2021/11/20 10:33:34;;;;;;;36.33;14.25;;;11.10;99.90;;;;;;5034753;28;20037;-79
2021/11/20 10:36:11;;;;;;;35.97;15.65;;;11.00;99.90;;;;;;5020157;28;20079;-83
2021/11/20 10:38:45;;;;;;;35.08;14.48;;;11.10;99.90;;;;;;5020521;28;20094;-80
2021/11/20 10:41:39;;;;;;;38.10;14.90;;;11.10;99.90;;;;;;5020082;28;20053;-81
2021/11/20 10:44:19;;;;;;;35.85;14.63;;;11.10;99.90;;;;;;5034507;28;20113;-78
2021/11/20 10:46:50;;;;;;;34.75;13.88;;;11.10;99.90;;;;;;5036092;28;20536;-80
2021/11/20 10:49:52;;;;;;;41.42;15.38;;;11.10;99.90;;;;;;5037550;28;20026;-78
2021/11/20 10:53:10;;;;;;;37.10;15.68;;;11.10;99.90;;;;;;5012077;28;20036;-80
2021/11/20 10:56:10;;;;;;;39.55;15.40;;;11.10;99.90;;;;;;5005653;28;20050;-79
2021/11/20 10:58:47;;;;;;;40.08;15.95;;;11.00;99.90;;;;;;5012985;28;20423;-78
2021/11/20 11:01:34;;;;;;;34.70;13.65;;;11.00;99.90;;;;;;5014437;28;20033;-78
2021/11/20 11:04:35;;;;;;;36.80;14.85;;;11.00;99.90;;;;;;5002024;28;20034;-78
2021/11/20 11:07:10;;;;;;;33.35;14.60;;;11.00;99.90;;;;;;5006085;28;20033;-78
2021/11/20 11:09:54;;;;;;;39.25;16.00;;;11.00;99.90;;;;;;5033989;28;20022;-78
2021/11/20 11:12:31;;;;;;;37.53;13.93;;;10.90;99.90;;;;;;5015853;28;20041;-78
2021/11/20 11:15:36;;;;;;;37.15;15.77;;;11.10;99.90;;;;;;5034278;28;20026;-77
2021/11/20 11:18:17;;;;;;;31.65;13.88;;;11.00;99.90;;;;;;5034228;28;20513;-78
2021/11/20 11:21:25;;;;;;;33.85;13.93;;;11.00;99.90;;;;;;5026026;28;20037;-77
2021/11/20 11:24:11;;;;;;;36.08;14.93;;;11.00;99.90;;;;;;5013859;28;20022;-78
2021/11/20 11:26:46;;;;;;;31.92;13.48;;;11.10;99.90;;;;;;4996162;28;20060;-77
2021/11/20 11:29:29;;;;;;;33.17;14.43;;;11.00;99.90;;;;;;4996360;28;20548;-78
2021/11/20 11:31:55;;;;;;;32.60;14.43;;;11.10;99.90;;;;;;5013759;28;20052;-78
2021/11/20 11:34:28;;;;;;;27.75;13.48;;;11.10;99.90;;;;;;5030209;28;20025;-78
2021/11/20 11:37:11;;;;;;;38.72;16.08;;;11.10;99.90;;;;;;5033674;28;20053;-78
2021/11/20 11:39:49;;;;;;;36.72;15.45;;;11.10;99.90;;;;;;5015929;28;20108;-79
2021/11/20 11:42:37;;;;;;;34.28;14.15;;;11.10;99.90;;;;;;5033201;28;20030;-78
2021/11/20 11:45:08;;;;;;;33.40;13.95;;;11.10;99.90;;;;;;5015941;28;20112;-77
2021/11/20 11:48:14;;;;;;;30.13;12.73;;;11.20;99.90;;;;;;5005510;28;20034;-77
2021/11/20 11:51:04;;;;;;;27.55;12.32;;;11.20;99.90;;;;;;4996396;28;20033;-79
2021/11/20 11:54:00;;;;;;;32.72;13.73;;;11.10;99.90;;;;;;4996136;28;20521;-78
2021/11/20 11:56:37;;;;;;;33.83;12.10;;;11.20;99.90;;;;;;4995840;28;21969;-78
2021/11/20 11:59:35;;;;;;;29.60;11.25;;;11.10;99.90;;;;;;4996062;28;20026;-79
2021/11/20 12:02:21;;;;;;;37.27;14.00;;;11.10;99.90;;;;;;5026016;28;20025;-79
2021/11/20 12:04:55;;;;;;;31.23;12.98;;;11.10;99.90;;;;;;5008122;28;20048;-77
2021/11/20 12:07:41;;;;;;;34.28;12.93;;;11.10;99.90;;;;;;5017778;28;20033;-78
2021/11/20 12:10:22;;;;;;;31.38;12.88;;;11.10;99.90;;;;;;5017268;28;20037;-79
2021/11/20 12:13:11;;;;;;;33.10;13.00;;;11.10;99.90;;;;;;5000144;28;20037;-76
2021/11/20 12:15:45;;;;;;;32.72;13.48;;;11.10;99.90;;;;;;5013740;28;20038;-79
2021/11/20 12:18:39;;;;;;;32.97;13.27;;;11.10;99.90;;;;;;5008720;28;20034;-80
2021/11/20 12:21:16;;;;;;;35.63;13.63;;;11.00;99.90;;;;;;5022443;28;20029;-79
2021/11/20 12:23:49;;;;;;;35.15;13.13;;;11.10;99.90;;;;;;5040034;28;20018;-80
2021/11/20 12:26:32;;;;;;;31.75;11.95;;;11.10;99.90;;;;;;5022781;28;20093;-82
2021/11/20 12:29:16;;;;;;;35.20;14.43;;;11.10;99.90;;;;;;5039832;28;20405;-80
2021/11/20 12:32:22;;;;;;;35.33;13.88;;;11.10;99.90;;;;;;5021460;28;20036;-81
2021/11/20 12:35:22;;;;;;;32.17;13.30;;;11.00;99.90;;;;;;5012039;28;20455;-79
2021/11/20 12:38:11;;;;;;;36.47;14.00;;;10.90;99.90;;;;;;5001053;28;20395;-78
2021/11/20 12:40:51;;;;;;;31.77;12.65;;;10.90;99.90;;;;;;4999576;28;20026;-80
2021/11/20 12:43:40;;;;;;;36.35;12.15;;;11.00;99.90;;;;;;5017705;28;20026;-77
2021/11/20 12:46:10;;;;;;;34.25;13.13;;;11.00;99.90;;;;;;5016572;28;20022;-75
2021/11/20 12:48:50;;;;;;;32.28;12.52;;;11.10;99.90;;;;;;5015937;28;20032;-77
2021/11/20 12:51:25;;;;;;;29.85;12.20;;;11.00;99.90;;;;;;4999446;28;20037;-77
2021/11/20 12:53:51;;;;;;;29.20;12.05;;;11.10;99.90;;;;;;4998177;28;20022;-78
2021/11/20 12:56:34;;;;;;;33.55;12.77;;;10.90;99.90;;;;;;4998172;28;20034;-77
2021/11/20 12:59:23;;;;;;;31.67;12.82;;;11.00;99.90;;;;;;4998334;28;20391;-78
2021/11/20 13:02:14;;;;;;;29.88;12.02;;;11.00;99.90;;;;;;5016761;28;20364;-78